Time;durP1;ratioP1;P1;durP2;ratioP2;P2;SDS_P1;SDS_P2;PMS_P1;PMS_P2;Temp;Humidity;BMP_temperature;BMP_pressure;BME280_temperature;BME280_humidity;BME280_pressure;Samples;Min_cycle;Max_cycle;Signal;HPM_P1;HPM_P2
2022/01/31 00:00:22;;;;;;;;;;;;;;;12.88;45.35;100623.47;4416913;32;20291;-67
2022/01/31 00:02:48;;;;;;;;;;;;;;;12.93;45.71;100648.31;4413857;32;19980;-67
2022/01/31 00:05:14;;;;;;;;;;;;;;;13.13;46.04;100642.41;4418485;32;20030;-67
2022/01/31 00:07:40;;;;;;;;;;;;;;;12.99;46.31;100618.28;4419269;32;20660;-67
2022/01/31 00:10:09;;;;;;;;;;;;;;;12.81;46.83;100634.22;4417211;32;20347;-67
2022/01/31 00:12:46;;;;;;;;;;;;;;;12.82;46.49;100678.97;4415031;32;20012;-67
2022/01/31 00:15:12;;;;;;;;;;;;;;;12.30;48.32;100650.47;4413904;32;20446;-67
2022/01/31 00:17:38;;;;;;;;;;;;;;;12.65;48.70;100665.44;4417603;32;19964;-67
2022/01/31 00:20:04;;;;;;;;;;;;;;;12.47;50.45;100654.75;4415053;32;19996;-67
2022/01/31 00:22:29;;;;;;;;;;;;;;;12.32;50.87;100647.19;4414241;32;19972;-67
2022/01/31 00:24:55;;;;;;;;;;;;;;;12.78;50.07;100657.72;4416775;32;20310;-67
2022/01/31 00:27:21;;;;;;;;;;;;;;;13.03;49.58;100680.28;4415373;32;20005;-67
2022/01/31 00:29:46;;;;;;;;;;;;;;;12.32;50.88;100704.44;4415457;32;20015;-67
2022/01/31 00:32:12;;;;;;;;;;;;;;;12.42;50.65;100696.88;4413862;32;20428;-67
2022/01/31 00:34:38;;;;;;;;;;;;;;;12.25;50.46;100730.06;4416414;32;19958;-67
2022/01/31 00:37:05;;;;;;;;;;;;;;;12.57;49.44;100715.72;4416542;32;19962;-68
2022/01/31 00:39:34;;;;;;;;;;;;;;;12.20;48.44;100702.38;4416319;32;19968;-68
2022/01/31 00:42:00;;;;;;;;;;;;;;;12.42;47.92;100708.16;4414243;32;20024;-68
2022/01/31 00:44:31;;;;;;;;;;;;;;;12.67;47.78;100703.28;4415437;32;20582;-68
2022/01/31 00:47:02;;;;;;;;;;;;;;;12.81;47.37;100702.00;4418445;32;19989;-68
2022/01/31 00:49:37;;;;;;;;;;;;;;;12.47;47.11;100688.63;4415382;32;20395;-68
2022/01/31 00:52:03;;;;;;;;;;;;;;;12.52;46.77;100715.50;4400782;32;20077;-68
2022/01/31 00:54:29;;;;;;;;;;;;;;;12.72;46.37;100702.72;4415498;32;19993;-67
2022/01/31 00:56:55;;;;;;;;;;;;;;;12.49;45.89;100724.87;4414180;32;20052;-68
2022/01/31 00:59:21;;;;;;;;;;;;;;;12.43;46.23;100710.53;4417869;32;20044;-68
2022/01/31 01:01:46;;;;;;;;;;;;;;;12.79;45.16;100713.00;4412600;32;19965;-68
2022/01/31 01:04:12;;;;;;;;;;;;;;;12.51;45.98;100723.16;4415669;32;20279;-68
2022/01/31 01:06:38;;;;;;;;;;;;;;;12.26;47.43;100737.25;4414646;32;19977;-68
2022/01/31 01:09:03;;;;;;;;;;;;;;;11.82;49.17;100702.34;4419541;32;20689;-68
2022/01/31 01:11:29;;;;;;;;;;;;;;;12.16;49.15;100692.44;4413654;32;19963;-68
2022/01/31 01:13:54;;;;;;;;;;;;;;;11.35;50.08;100690.00;4415541;32;20021;-68
2022/01/31 01:16:21;;;;;;;;;;;;;;;11.81;48.97;100700.75;4414559;32;19953;-68
2022/01/31 01:18:47;;;;;;;;;;;;;;;11.68;47.97;100705.59;4415766;32;19957;-68
2022/01/31 01:21:12;;;;;;;;;;;;;;;11.90;47.25;100688.81;4416758;32;19950;-68
2022/01/31 01:23:38;;;;;;;;;;;;;;;11.56;47.45;100671.69;4413830;32;19973;-68
2022/01/31 01:26:03;;;;;;;;;;;;;;;12.19;46.78;100703.62;4415517;32;20009;-68
2022/01/31 01:28:30;;;;;;;;;;;;;;;11.93;47.38;100728.19;4416141;32;20363;-68
2022/01/31 01:30:56;;;;;;;;;;;;;;;12.20;48.04;100718.50;4412824;32;20031;-68
2022/01/31 01:33:23;;;;;;;;;;;;;;;12.17;48.50;100708.94;4414557;32;20032;-68
2022/01/31 01:35:51;;;;;;;;;;;;;;;12.22;48.25;100716.84;4412114;32;19954;-69
2022/01/31 01:38:18;;;;;;;;;;;;;;;12.20;48.68;100712.88;4415046;32;20400;-69
2022/01/31 01:40:44;;;;;;;;;;;;;;;11.25;50.81;100771.97;4414000;32;19965;-68
2022/01/31 01:43:11;;;;;;;;;;;;;;;11.57;50.05;100730.41;4413721;32;19956;-68
2022/01/31 01:45:37;;;;;;;;;;;;;;;12.17;48.94;100713.78;4415151;32;20641;-68
2022/01/31 01:48:06;;;;;;;;;;;;;;;12.32;48.18;100709.28;4415062;32;19949;-68
2022/01/31 01:50:32;;;;;;;;;;;;;;;11.92;48.19;100706.09;4413967;32;20004;-69
2022/01/31 01:52:59;;;;;;;;;;;;;;;12.50;47.27;100715.94;4415076;32;19961;-69
2022/01/31 01:55:25;;;;;;;;;;;;;;;12.45;46.97;100705.22;4417787;32;20730;-69
2022/01/31 01:57:50;;;;;;;;;;;;;;;12.44;46.74;100698.00;4412138;32;20004;-69
2022/01/31 02:00:23;;;;;;;;;;;;;;;12.97;46.00;100704.69;4414423;32;19973;-69
2022/01/31 02:02:50;;;;;;;;;;;;;;;12.93;45.83;100715.31;4413610;32;20034;-69
2022/01/31 02:05:16;;;;;;;;;;;;;;;12.76;46.55;100728.78;4401148;32;20018;-69
2022/01/31 02:07:42;;;;;;;;;;;;;;;12.38;47.57;100716.72;4416006;32;20349;-69
2022/01/31 02:10:08;;;;;;;;;;;;;;;12.31;48.68;100719.78;4414191;32;19957;-69
2022/01/31 02:12:37;;;;;;;;;;;;;;;12.74;47.69;100714.34;4411020;32;20341;-69
2022/01/31 02:15:03;;;;;;;;;;;;;;;12.53;47.68;100737.63;4413771;32;20327;-69
2022/01/31 02:17:29;;;;;;;;;;;;;;;12.38;47.46;100742.13;4415840;32;20046;-69
2022/01/31 02:19:55;;;;;;;;;;;;;;;12.13;47.70;100732.84;4412660;32;20288;-69
2022/01/31 02:22:20;;;;;;;;;;;;;;;12.53;46.81;100731.97;4415172;32;20226;-69
2022/01/31 02:24:46;;;;;;;;;;;;;;;12.20;47.14;100730.59;4412838;32;20001;-69
2022/01/31 02:27:11;;;;;;;;;;;;;;;12.43;46.56;100744.41;4415578;32;19973;-69
2022/01/31 02:29:38;;;;;;;;;;;;;;;12.45;46.21;100738.31;4413341;32;19964;-69
2022/01/31 02:32:04;;;;;;;;;;;;;;;12.13;46.93;100736.47;4402338;32;20346;-69
2022/01/31 02:34:29;;;;;;;;;;;;;;;12.55;46.05;100745.63;4412528;32;19993;-69
2022/01/31 02:36:55;;;;;;;;;;;;;;;12.77;45.61;100738.84;4413489;32;19953;-69
2022/01/31 02:39:20;;;;;;;;;;;;;;;12.86;45.31;100763.59;4417518;32;19954;-69
2022/01/31 02:41:46;;;;;;;;;;;;;;;12.78;45.40;100760.19;4412081;32;19962;-69
2022/01/31 02:44:16;;;;;;;;;;;;;;;12.77;45.04;100767.09;4414505;32;20368;-69
2022/01/31 02:46:48;;;;;;;;;;;;;;;12.76;45.40;100770.38;4414351;32;20032;-69
2022/01/31 02:49:15;;;;;;;;;;;;;;;12.41;45.73;100777.13;4416607;32;19965;-69
2022/01/31 02:51:45;;;;;;;;;;;;;;;12.31;45.34;100769.78;4413417;32;20006;-68
2022/01/31 02:54:11;;;;;;;;;;;;;;;12.64;44.57;100774.75;4411567;32;19949;-68
2022/01/31 02:56:40;;;;;;;;;;;;;;;12.38;44.75;100804.22;4410658;32;20301;-69
2022/01/31 02:59:06;;;;;;;;;;;;;;;12.19;44.93;100790.31;4416272;32;20373;-69
2022/01/31 03:01:33;;;;;;;;;;;;;;;12.34;44.25;100811.22;4412190;32;20001;-69
2022/01/31 03:03:59;;;;;;;;;;;;;;;12.13;44.22;100788.03;4412734;32;20343;-69
2022/01/31 03:06:24;;;;;;;;;;;;;;;12.70;43.36;100767.31;4418656;32;20036;-69
2022/01/31 03:08:50;;;;;;;;;;;;;;;12.40;44.02;100767.88;4416234;32;19960;-69
2022/01/31 03:11:15;;;;;;;;;;;;;;;12.07;44.28;100783.41;4415387;32;19958;-69
2022/01/31 03:13:41;;;;;;;;;;;;;;;12.42;43.56;100782.31;4416308;32;19993;-69
2022/01/31 03:16:06;;;;;;;;;;;;;;;12.49;43.60;100776.44;4418279;32;19990;-68
2022/01/31 03:18:32;;;;;;;;;;;;;;;12.43;43.52;100766.97;4415440;32;20042;-68
2022/01/31 03:20:58;;;;;;;;;;;;;;;12.57;43.55;100758.06;4415081;32;20716;-68
2022/01/31 03:23:24;;;;;;;;;;;;;;;12.98;42.71;100780.50;4415126;32;20302;-68
2022/01/31 03:25:49;;;;;;;;;;;;;;;12.35;43.29;100759.16;4415049;32;20355;-68
2022/01/31 03:28:15;;;;;;;;;;;;;;;12.42;43.24;100758.97;4418508;32;20390;-69
2022/01/31 03:30:41;;;;;;;;;;;;;;;12.59;43.11;100789.47;4418475;32;19957;-69
2022/01/31 03:33:06;;;;;;;;;;;;;;;12.57;42.97;100786.28;4417645;32;20012;-69
2022/01/31 03:35:32;;;;;;;;;;;;;;;12.54;42.85;100790.00;4415587;32;20040;-69
2022/01/31 03:37:57;;;;;;;;;;;;;;;12.30;43.35;100804.91;4417268;32;19998;-69
2022/01/31 03:40:23;;;;;;;;;;;;;;;12.65;42.64;100801.78;4419456;32;20035;-69
2022/01/31 03:42:48;;;;;;;;;;;;;;;12.46;42.75;100788.66;4415020;32;19949;-69
2022/01/31 03:45:14;;;;;;;;;;;;;;;12.77;42.13;100809.44;4415919;32;20101;-69
2022/01/31 03:47:44;;;;;;;;;;;;;;;12.77;41.76;100823.56;4420885;32;19993;-69
2022/01/31 03:50:12;;;;;;;;;;;;;;;12.86;42.09;100834.19;4414985;32;20140;-69
2022/01/31 03:52:38;;;;;;;;;;;;;;;12.50;41.31;100831.69;4414238;32;20035;-69
2022/01/31 03:55:03;;;;;;;;;;;;;;;13.01;40.93;100835.34;4419371;32;20376;-69
2022/01/31 03:57:31;;;;;;;;;;;;;;;13.16;40.93;100848.53;4416657;32;20479;-69
2022/01/31 03:59:56;;;;;;;;;;;;;;;12.42;41.45;100855.69;4417079;32;19961;-69
2022/01/31 04:02:22;;;;;;;;;;;;;;;12.69;41.40;100830.69;4417269;32;20339;-69
2022/01/31 04:04:47;;;;;;;;;;;;;;;12.56;40.97;100817.78;4416477;32;19980;-69
2022/01/31 04:07:13;;;;;;;;;;;;;;;12.35;40.83;100824.88;4418594;32;19972;-69
2022/01/31 04:09:38;;;;;;;;;;;;;;;12.20;40.92;100795.50;4415120;32;20447;-68
2022/01/31 04:12:04;;;;;;;;;;;;;;;12.10;40.54;100793.78;4418334;32;20038;-68
2022/01/31 04:14:30;;;;;;;;;;;;;;;12.59;40.26;100814.06;4418558;32;19968;-68
2022/01/31 04:16:57;;;;;;;;;;;;;;;12.44;39.98;100802.44;4415198;32;20607;-68
2022/01/31 04:19:23;;;;;;;;;;;;;;;12.24;39.77;100801.03;4416672;32;19957;-68
2022/01/31 04:21:49;;;;;;;;;;;;;;;12.28;39.79;100816.63;4415877;32;20047;-68
2022/01/31 04:24:21;;;;;;;;;;;;;;;11.71;40.30;100833.56;4419694;32;19957;-68
2022/01/31 04:26:56;;;;;;;;;;;;;;;12.21;40.03;100825.28;4416876;32;19997;-68
2022/01/31 04:29:22;;;;;;;;;;;;;;;12.21;39.83;100813.22;4417672;32;20334;-68
2022/01/31 04:31:51;;;;;;;;;;;;;;;12.49;39.69;100832.91;4414570;32;19957;-68
2022/01/31 04:34:16;;;;;;;;;;;;;;;12.42;39.91;100840.81;4414358;32;20011;-68
2022/01/31 04:36:42;;;;;;;;;;;;;;;12.51;40.04;100838.91;4414431;32;19961;-69
2022/01/31 04:39:07;;;;;;;;;;;;;;;12.24;39.71;100846.97;4414885;32;20043;-68
2022/01/31 04:41:33;;;;;;;;;;;;;;;12.38;39.01;100849.38;4416234;32;20353;-68
2022/01/31 04:44:05;;;;;;;;;;;;;;;12.96;38.18;100861.28;4416987;32;20330;-68
2022/01/31 04:46:31;;;;;;;;;;;;;;;12.80;38.23;100853.75;4417664;32;19979;-68
2022/01/31 04:48:56;;;;;;;;;;;;;;;12.64;38.08;100847.41;4419194;32;20386;-68
2022/01/31 04:51:21;;;;;;;;;;;;;;;12.74;37.79;100841.41;4416856;32;20246;-69
2022/01/31 04:53:48;;;;;;;;;;;;;;;12.81;37.32;100854.50;4416223;32;19981;-69
2022/01/31 04:56:14;;;;;;;;;;;;;;;12.77;37.90;100868.75;4418428;32;19991;-69
2022/01/31 04:58:40;;;;;;;;;;;;;;;12.43;37.71;100870.59;4416247;32;20001;-68
2022/01/31 05:01:05;;;;;;;;;;;;;;;12.72;37.47;100858.00;4414545;32;19973;-70
2022/01/31 05:03:31;;;;;;;;;;;;;;;12.88;37.02;100855.06;4412852;32;20620;-70
2022/01/31 05:05:57;;;;;;;;;;;;;;;12.36;38.12;100853.91;4414562;32;19993;-69
2022/01/31 05:08:26;;;;;;;;;;;;;;;12.50;37.43;100862.72;4417064;32;20010;-69
2022/01/31 05:10:52;;;;;;;;;;;;;;;12.46;37.35;100875.38;4417723;32;19945;-69
2022/01/31 05:13:17;;;;;;;;;;;;;;;12.33;37.13;100880.97;4414248;32;20313;-69
2022/01/31 05:15:43;;;;;;;;;;;;;;;12.77;36.29;100890.56;4416787;32;19989;-69
2022/01/31 05:18:10;;;;;;;;;;;;;;;11.86;36.99;100899.62;4420817;32;19953;-69
2022/01/31 05:20:35;;;;;;;;;;;;;;;12.44;36.43;100883.47;4415586;32;20818;-70
2022/01/31 05:23:01;;;;;;;;;;;;;;;11.80;36.95;100887.28;4413693;32;20587;-70
2022/01/31 05:25:27;;;;;;;;;;;;;;;12.01;36.89;100878.25;4417861;32;20389;-70
2022/01/31 05:27:52;;;;;;;;;;;;;;;12.11;36.74;100871.53;4416806;32;19988;-70
2022/01/31 05:30:18;;;;;;;;;;;;;;;12.10;36.74;100898.16;4415653;32;19968;-69
2022/01/31 05:32:44;;;;;;;;;;;;;;;11.67;37.83;100890.06;4414209;32;20036;-69
2022/01/31 05:35:09;;;;;;;;;;;;;;;11.85;37.28;100900.88;4415010;32;20005;-70
2022/01/31 05:37:35;;;;;;;;;;;;;;;11.90;37.78;100884.19;4419080;32;20040;-70
2022/01/31 05:40:01;;;;;;;;;;;;;;;12.23;37.36;100898.19;4414802;32;20013;-70
2022/01/31 05:42:27;;;;;;;;;;;;;;;12.35;37.38;100906.72;4416343;32;19984;-70
2022/01/31 05:44:53;;;;;;;;;;;;;;;12.55;37.02;100907.31;4415053;32;19990;-70
2022/01/31 05:47:19;;;;;;;;;;;;;;;12.16;37.16;100896.38;4420156;32;20013;-70
2022/01/31 05:49:45;;;;;;;;;;;;;;;12.00;37.86;100922.59;4416241;32;19958;-69
2022/01/31 05:52:11;;;;;;;;;;;;;;;11.58;38.69;100914.44;4413987;32;20009;-69
2022/01/31 05:54:38;;;;;;;;;;;;;;;12.32;38.09;100935.81;4414336;32;19952;-69
2022/01/31 05:57:04;;;;;;;;;;;;;;;11.88;38.19;100942.28;4415970;32;20213;-69
2022/01/31 05:59:30;;;;;;;;;;;;;;;11.68;38.72;100952.84;4417075;32;20033;-69
2022/01/31 06:01:57;;;;;;;;;;;;;;;12.07;38.06;100958.28;4414554;32;19994;-69
2022/01/31 06:04:23;;;;;;;;;;;;;;;12.43;37.52;100980.69;4414100;32;19973;-69
2022/01/31 06:06:49;;;;;;;;;;;;;;;11.78;38.38;100971.53;4417704;32;19968;-69
2022/01/31 06:09:14;;;;;;;;;;;;;;;12.35;37.43;100968.81;4416219;32;20004;-70
2022/01/31 06:11:41;;;;;;;;;;;;;;;12.39;37.71;100966.66;4412464;32;20301;-70
2022/01/31 06:14:08;;;;;;;;;;;;;;;12.09;37.85;100950.19;4415911;32;19980;-70
2022/01/31 06:16:34;;;;;;;;;;;;;;;12.44;37.58;100959.69;4416462;32;19993;-70
2022/01/31 06:19:00;;;;;;;;;;;;;;;11.79;38.72;100962.63;4415047;32;20304;-70
2022/01/31 09:18:20;;;;;;;;;;;;;;;13.07;35.19;101342.13;4402252;32;19956;-71
2022/01/31 09:20:45;;;;;;;;;;;;;;;13.36;34.21;101337.34;4409010;32;19977;-71
2022/01/31 09:23:11;;;;;;;;;;;;;;;13.46;33.98;101356.84;4410708;32;19992;-72
2022/01/31 09:35:33;;;;;;;;;;;;;;;13.69;32.32;101367.94;4409100;32;19984;-71
2022/01/31 09:38:00;;;;;;;;;;;;;;;14.18;31.49;101379.94;4413144;32;20707;-72
2022/01/31 09:40:26;;;;;;;;;;;;;;;13.72;31.25;101388.91;4412822;32;20371;-71
2022/01/31 09:43:09;;;;;;;;;;;;;;;14.47;30.11;101385.59;4406888;32;19996;-71
2022/01/31 09:46:15;;;;;;;;;;;;;;;14.40;30.19;101394.28;4410331;32;19991;-71
2022/01/31 09:48:43;;;;;;;;;;;;;;;14.83;29.38;101412.41;4409493;32;20625;-71
2022/01/31 09:51:10;;;;;;;;;;;;;;;15.09;28.80;101411.16;4410749;32;19993;-71
2022/01/31 09:53:37;;;;;;;;;;;;;;;14.82;28.58;101424.19;4412393;32;20202;-71
2022/01/31 09:56:04;;;;;;;;;;;;;;;14.96;29.02;101415.25;4410921;32;19950;-71
2022/01/31 09:58:29;;;;;;;;;;;;;;;15.51;28.15;101426.84;4397603;32;20451;-72
2022/01/31 10:01:04;;;;;;;;;;;;;;;15.58;28.01;101428.62;4412014;32;19972;-70
2022/01/31 10:06:50;;;;;;;;;;;;;;;15.44;27.89;101434.78;4410121;32;20044;-71
2022/01/31 10:09:20;;;;;;;;;;;;;;;15.35;27.96;101437.47;4409192;32;20346;-70
2022/01/31 10:23:41;;;;;;;;;;;;;;;16.85;26.95;101473.97;4427536;32;19990;-70
2022/01/31 10:26:25;;;;;;;;;;;;;;;16.92;26.63;101479.38;4428352;32;19961;-71
2022/01/31 10:28:51;;;;;;;;;;;;;;;17.33;25.93;101472.47;4425942;32;21396;-71
2022/01/31 10:31:16;;;;;;;;;;;;;;;17.38;26.11;101477.53;4411001;32;19962;-70
2022/01/31 10:34:02;;;;;;;;;;;;;;;16.24;27.04;101492.84;4428249;32;19993;-71
2022/01/31 10:36:32;;;;;;;;;;;;;;;16.23;27.17;101496.94;4428614;32;20423;-72
2022/01/31 10:39:06;;;;;;;;;;;;;;;16.38;27.27;101493.12;4411616;32;20010;-72
2022/01/31 10:44:58;;;;;;;;;;;;;;;16.93;26.12;101492.31;4422794;32;19997;-70
2022/01/31 10:53:10;;;;;;;;;;;;;;;17.62;25.14;101507.87;4424968;32;20000;-70
2022/01/31 10:55:36;;;;;;;;;;;;;;;17.19;26.09;101512.88;4423545;32;19992;-71
2022/01/31 10:58:04;;;;;;;;;;;;;;;18.09;24.76;101532.37;4413442;32;20034;-70
2022/01/31 11:00:32;;;;;;;;;;;;;;;17.56;24.63;101535.37;4427916;32;20489;-70
2022/01/31 11:02:59;;;;;;;;;;;;;;;17.03;25.66;101542.31;4425251;32;19996;-69
2022/01/31 11:05:24;;;;;;;;;;;;;;;17.19;24.80;101547.78;4421659;32;19961;-69
2022/01/31 11:07:50;;;;;;;;;;;;;;;17.25;25.22;101553.66;4414086;32;19976;-69
2022/01/31 11:10:26;;;;;;;;;;;;;;;17.02;25.74;101554.12;4425830;32;20176;-69
2022/01/31 11:12:52;;;;;;;;;;;;;;;17.60;25.04;101558.78;4426641;32;20001;-70
2022/01/31 11:15:21;;;;;;;;;;;;;;;17.36;25.62;101559.72;4425955;32;20453;-70
2022/01/31 11:17:48;;;;;;;;;;;;;;;17.63;25.25;101571.28;4424294;32;19996;-70
2022/01/31 11:20:13;;;;;;;;;;;;;;;17.56;25.08;101580.94;4415069;32;19961;-72
2022/01/31 11:22:42;;;;;;;;;;;;;;;18.03;24.98;101586.31;4427956;32;19957;-73
2022/01/31 11:25:09;;;;;;;;;;;;;;;17.07;25.89;101579.94;4424972;32;20228;-72
2022/01/31 11:27:36;;;;;;;;;;;;;;;16.99;25.79;101560.75;4417593;32;20004;-73
2022/01/31 11:30:03;;;;;;;;;;;;;;;17.86;25.20;101560.16;4415835;32;20035;-71
2022/01/31 11:32:28;;;;;;;;;;;;;;;17.59;25.18;101556.41;4418542;32;20001;-72
2022/01/31 11:34:55;;;;;;;;;;;;;;;17.45;25.60;101591.91;4415898;32;19965;-73
2022/01/31 11:37:21;;;;;;;;;;;;;;;17.38;25.96;101572.25;4416373;32;19960;-73
2022/01/31 11:39:48;;;;;;;;;;;;;;;17.59;25.75;101570.66;4412195;32;20300;-72
2022/01/31 11:42:16;;;;;;;;;;;;;;;17.95;24.89;101581.41;4413335;32;19975;-71
2022/01/31 11:47:21;;;;;;;;;;;;;;;18.40;24.48;101584.38;3947239;32;15726620;-72
2022/01/31 11:49:47;;;;;;;;;;;;;;;18.40;24.48;101584.38;4404128;32;20019;-72
2022/01/31 11:52:14;;;;;;;;;;;;;;;18.34;24.83;101586.25;4421932;32;20035;-72
2022/01/31 11:57:32;;;;;;;;;;;;;;;19.50;23.63;101601.81;3946351;32;15728606;-72
2022/01/31 12:00:00;;;;;;;;;;;;;;;19.50;23.63;101601.81;4424028;32;19993;-72
2022/01/31 12:02:29;;;;;;;;;;;;;;;19.12;23.75;101610.09;4425153;32;20496;-72
2022/01/31 12:04:59;;;;;;;;;;;;;;;19.24;23.66;101609.91;4423258;32;19980;-72
2022/01/31 12:15:32;;;;;;;;;;;;;;;21.01;22.04;101609.28;3947892;32;15724297;-72
2022/01/31 12:18:26;;;;;;;;;;;;;;;21.01;22.04;101609.28;4422389;32;20024;-72
2022/01/31 12:23:39;;;;;;;;;;;;;;;19.54;23.58;101586.09;4424509;32;19987;-73
2022/01/31 12:26:25;;;;;;;;;;;;;;;19.62;23.74;101583.69;4424486;32;20311;-72
2022/01/31 12:28:55;;;;;;;;;;;;;;;20.36;22.79;101582.87;4420664;32;20477;-72
2022/01/31 12:34:01;;;;;;;;;;;;;;;21.62;21.47;101578.91;3947931;32;15721441;-73
2022/01/31 12:39:35;;;;;;;;;;;;;;;20.78;22.09;101570.03;3943789;32;15722541;-72
2022/01/31 12:42:30;;;;;;;;;;;;;;;21.07;21.91;101572.97;4420952;32;20007;-72
2022/01/31 12:44:55;;;;;;;;;;;;;;;22.41;21.46;101574.72;4424941;32;19969;-72
2022/01/31 12:47:21;;;;;;;;;;;;;;;21.31;21.42;101582.28;4425129;32;20012;-72
2022/01/31 12:50:06;;;;;;;;;;;;;;;20.79;21.80;101587.97;4424430;32;20011;-72
2022/01/31 12:52:36;;;;;;;;;;;;;;;21.01;21.45;101592.13;4424720;32;19961;-73
2022/01/31 12:55:10;;;;;;;;;;;;;;;20.85;21.85;101578.25;4424613;32;20352;-74
2022/01/31 12:57:52;;;;;;;;;;;;;;;20.57;21.63;101579.75;4424896;32;20499;-71
2022/01/31 13:00:40;;;;;;;;;;;;;;;21.09;21.34;101587.59;4423421;32;20502;-72
2022/01/31 13:03:10;;;;;;;;;;;;;;;22.13;20.88;101587.06;4402863;32;19958;-71
2022/01/31 13:05:36;;;;;;;;;;;;;;;22.48;20.51;101599.31;4401033;32;19953;-71
2022/01/31 13:08:23;;;;;;;;;;;;;;;21.84;20.54;101590.78;4423582;32;19997;-72
2022/01/31 13:10:52;;;;;;;;;;;;;;;22.16;21.19;101598.34;4422733;32;19994;-72
2022/01/31 13:13:34;;;;;;;;;;;;;;;22.30;20.54;101597.50;4421530;32;20314;-72
2022/01/31 13:16:08;;;;;;;;;;;;;;;22.56;20.58;101594.75;4424316;32;20062;-72
2022/01/31 13:18:34;;;;;;;;;;;;;;;21.82;21.62;101593.37;4422943;32;20008;-72
2022/01/31 13:21:03;;;;;;;;;;;;;;;21.94;21.44;101591.47;4419540;32;19965;-75
2022/01/31 13:23:29;;;;;;;;;;;;;;;20.73;22.20;101599.31;4419259;32;19993;-72
2022/01/31 13:26:03;;;;;;;;;;;;;;;21.02;22.36;101604.38;4423088;32;19993;-72
2022/01/31 13:28:29;;;;;;;;;;;;;;;20.07;23.66;101612.09;4425670;32;19949;-73
2022/01/31 13:31:02;;;;;;;;;;;;;;;19.92;23.79;101596.94;4420116;32;20012;-72
2022/01/31 13:33:27;;;;;;;;;;;;;;;19.87;23.92;101594.72;4420145;32;21328;-73
2022/01/31 13:35:59;;;;;;;;;;;;;;;20.40;23.39;101581.44;4420132;32;20005;-72
2022/01/31 13:38:24;;;;;;;;;;;;;;;19.48;24.04;101598.63;4421186;32;19985;-73
2022/01/31 13:40:53;;;;;;;;;;;;;;;19.26;24.35;101593.16;4423505;32;20516;-71
2022/01/31 13:43:23;;;;;;;;;;;;;;;19.55;24.25;101593.37;4423954;32;20008;-73
2022/01/31 13:48:44;;;;;;;;;;;;;;;18.56;25.66;101581.25;3947053;32;15722570;-72
2022/01/31 13:51:13;;;;;;;;;;;;;;;18.56;25.66;101581.25;4423275;32;20359;-71
2022/01/31 13:53:40;;;;;;;;;;;;;;;18.86;25.27;101588.84;4421489;32;20302;-72
2022/01/31 13:56:08;;;;;;;;;;;;;;;19.44;24.45;101575.97;4424043;32;20015;-72
2022/01/31 13:58:36;;;;;;;;;;;;;;;18.83;25.26;101587.75;4399857;32;21105;-71
2022/01/31 14:01:02;;;;;;;;;;;;;;;19.11;25.32;101591.38;4423970;32;19984;-71
2022/01/31 14:03:29;;;;;;;;;;;;;;;20.57;23.50;101587.53;4423004;32;20035;-72
2022/01/31 14:05:56;;;;;;;;;;;;;;;21.07;22.80;101592.22;4422319;32;20625;-72
2022/01/31 14:08:25;;;;;;;;;;;;;;;20.54;23.34;101595.00;4421340;32;20045;-71
2022/01/31 14:10:50;;;;;;;;;;;;;;;21.22;22.63;101602.41;4425230;32;19998;-73
2022/01/31 14:13:16;;;;;;;;;;;;;;;20.95;23.18;101591.22;4423569;32;20016;-73
2022/01/31 14:15:47;;;;;;;;;;;;;;;21.28;22.53;101603.31;4423580;32;20414;-73
2022/01/31 14:18:14;;;;;;;;;;;;;;;21.17;22.61;101591.66;4423708;32;20962;-74
2022/01/31 14:20:40;;;;;;;;;;;;;;;20.84;23.08;101596.69;4428030;32;19965;-72
2022/01/31 14:23:10;;;;;;;;;;;;;;;21.21;22.87;101589.41;4426768;32;19960;-72
2022/01/31 14:25:40;;;;;;;;;;;;;;;21.05;23.19;101586.22;4424627;32;20004;-73
2022/01/31 14:28:06;;;;;;;;;;;;;;;21.34;23.00;101598.50;4427275;32;20324;-73
2022/01/31 14:30:33;;;;;;;;;;;;;;;21.98;22.73;101604.31;4413949;32;19995;-74
2022/01/31 14:33:00;;;;;;;;;;;;;;;22.17;22.57;101608.50;4413483;32;20060;-72
2022/01/31 14:35:28;;;;;;;;;;;;;;;22.71;21.91;101601.22;4423941;32;20290;-72
2022/01/31 14:37:55;;;;;;;;;;;;;;;21.97;22.50;101601.94;4422291;32;19991;-73
2022/01/31 14:47:11;;;;;;;;;;;;;;;21.75;23.36;101595.84;4424119;32;19997;-71
2022/01/31 14:48:52;;;;;;;;;;;;;;;22.86;21.96;101596.19;4423292;32;20005;-72
2022/01/31 14:51:22;;;;;;;;;;;;;;;22.80;21.88;101604.72;4426781;32;20000;-73
2022/01/31 14:53:55;;;;;;;;;;;;;;;22.88;21.93;101619.44;4426243;32;19961;-72
2022/01/31 14:56:21;;;;;;;;;;;;;;;22.59;22.55;101613.84;4427728;32;20037;-73
2022/01/31 14:58:46;;;;;;;;;;;;;;;23.27;21.86;101615.75;4411015;32;19969;-71
2022/01/31 15:01:12;;;;;;;;;;;;;;;22.64;22.31;101625.38;4410720;32;20397;-72
2022/01/31 15:03:38;;;;;;;;;;;;;;;21.87;23.19;101606.22;4411675;32;20472;-72
2022/01/31 15:06:04;;;;;;;;;;;;;;;20.77;24.67;101610.59;4412139;32;20016;-73
2022/01/31 15:08:30;;;;;;;;;;;;;;;20.94;24.50;101605.97;4410832;32;19997;-74
2022/01/31 15:10:56;;;;;;;;;;;;;;;21.53;24.04;101613.41;4407594;32;20017;-75
2022/01/31 15:13:21;;;;;;;;;;;;;;;21.18;23.95;101613.28;4416546;32;20009;-73
2022/01/31 15:15:52;;;;;;;;;;;;;;;21.17;24.40;101611.69;4414055;32;20452;-70
2022/01/31 15:18:18;;;;;;;;;;;;;;;21.31;24.17;101622.38;4409347;32;20038;-72
2022/01/31 15:20:43;;;;;;;;;;;;;;;21.83;23.79;101617.06;4410923;32;20004;-72
2022/01/31 15:23:11;;;;;;;;;;;;;;;22.18;23.45;101637.97;4410869;32;20020;-72
2022/01/31 15:25:38;;;;;;;;;;;;;;;22.49;23.34;101636.09;4413407;32;20039;-71
2022/01/31 15:28:04;;;;;;;;;;;;;;;21.95;23.66;101636.03;4413021;32;20417;-71
2022/01/31 15:30:29;;;;;;;;;;;;;;;21.84;23.98;101639.50;4408028;32;21085;-72
2022/01/31 15:32:55;;;;;;;;;;;;;;;22.85;22.86;101644.19;4411686;32;20364;-71
2022/01/31 15:35:21;;;;;;;;;;;;;;;21.80;24.12;101638.91;4413645;32;20401;-72
2022/01/31 15:37:46;;;;;;;;;;;;;;;20.85;25.39;101635.47;4411636;32;19981;-73
2022/01/31 15:40:14;;;;;;;;;;;;;;;21.58;24.78;101639.28;4413955;32;20008;-72
2022/01/31 15:42:40;;;;;;;;;;;;;;;21.24;25.08;101645.69;4413729;32;20011;-71
2022/01/31 15:45:07;;;;;;;;;;;;;;;21.51;24.80;101661.81;4414706;32;19973;-71
2022/01/31 15:47:33;;;;;;;;;;;;;;;21.66;24.86;101654.78;4413623;32;20360;-72
2022/01/31 15:49:59;;;;;;;;;;;;;;;21.76;24.75;101657.59;4411625;32;19954;-72
2022/01/31 15:52:24;;;;;;;;;;;;;;;20.67;25.95;101640.50;4411606;32;21000;-72
2022/01/31 15:54:51;;;;;;;;;;;;;;;20.39;26.58;101654.19;4400056;32;20011;-73
2022/01/31 15:57:21;;;;;;;;;;;;;;;19.58;27.69;101651.63;4414054;32;20340;-73
2022/01/31 15:59:46;;;;;;;;;;;;;;;18.82;29.07;101657.50;4409640;32;19993;-73
2022/01/31 16:02:14;;;;;;;;;;;;;;;17.97;30.27;101656.56;4395897;32;20017;-73
2022/01/31 16:04:39;;;;;;;;;;;;;;;17.45;31.44;101657.37;4411432;32;19953;-73
2022/01/31 16:07:05;;;;;;;;;;;;;;;17.44;31.45;101655.00;4412822;32;19965;-73
2022/01/31 16:09:30;;;;;;;;;;;;;;;17.50;31.50;101638.91;4412398;32;19969;-73
2022/01/31 16:11:56;;;;;;;;;;;;;;;16.30;33.58;101633.03;4411558;32;20022;-72
2022/01/31 16:14:22;;;;;;;;;;;;;;;16.14;34.09;101642.47;4411776;32;20468;-73
2022/01/31 16:16:48;;;;;;;;;;;;;;;16.28;33.99;101636.34;4413265;32;19965;-72
2022/01/31 16:19:13;;;;;;;;;;;;;;;16.16;34.38;101636.34;4412465;32;19961;-72
2022/01/31 16:21:39;;;;;;;;;;;;;;;16.08;34.64;101632.97;4413124;32;20025;-72
2022/01/31 16:24:06;;;;;;;;;;;;;;;15.80;35.37;101633.84;4398528;32;20370;-72
2022/01/31 16:26:31;;;;;;;;;;;;;;;15.66;35.86;101639.97;4410643;32;20337;-72
2022/01/31 16:28:57;;;;;;;;;;;;;;;15.74;35.76;101647.81;4413557;32;20016;-72
2022/01/31 16:31:23;;;;;;;;;;;;;;;15.28;36.77;101658.91;4410569;32;20034;-73
2022/01/31 16:33:51;;;;;;;;;;;;;;;15.64;36.19;101648.94;4413219;32;19957;-72
2022/01/31 16:36:20;;;;;;;;;;;;;;;15.24;36.95;101642.00;4411915;32;20015;-73
2022/01/31 16:38:46;;;;;;;;;;;;;;;15.08;37.34;101641.25;4410237;32;20000;-72